Time;durP1;ratioP1;P1;durP2;ratioP2;P2;SDS_P1;SDS_P2;PMS_P1;PMS_P2;Temp;Humidity;BMP_temperature;BMP_pressure;BME280_temperature;BME280_humidity;BME280_pressure;Samples;Min_cycle;Max_cycle;Signal;HPM_P1;HPM_P2
2021/04/24 00:01:15;;;;;;;3.89;1.40;;;;;;;4.35;65.02;100087.16;1987555;79;23025;-80
2021/04/24 00:04:17;;;;;;;4.10;2.45;;;;;;;4.33;65.04;100085.38;1991898;81;20332;-80
2021/04/24 00:07:19;;;;;;;5.74;1.60;;;;;;;4.28;65.39;100082.63;1990965;81;20325;-81
2021/04/24 00:10:22;;;;;;;2.65;1.65;;;;;;;4.24;65.50;100088.50;1992514;82;20345;-80
2021/04/24 00:13:24;;;;;;;4.50;1.91;;;;;;;4.17;65.65;100079.75;1991812;81;20334;-81
2021/04/24 00:16:26;;;;;;;2.09;1.50;;;;;;;4.14;65.75;100084.78;1992105;79;22831;-82
2021/04/24 00:19:28;;;;;;;5.03;1.90;;;;;;;4.11;65.81;100084.66;1994435;81;20420;-82
2021/04/24 00:22:31;;;;;;;2.45;1.44;;;;;;;4.06;66.07;100088.78;1990458;82;20357;-81
2021/04/24 00:25:33;;;;;;;3.36;1.60;;;;;;;4.00;66.25;100083.47;1987524;81;20824;-79
2021/04/24 00:28:35;;;;;;;4.31;1.84;;;;;;;3.94;66.07;100075.53;1988466;82;20748;-80
2021/04/24 00:31:36;;;;;;;3.13;2.31;;;;;;;3.93;66.46;100086.63;1986316;79;45426;-81
2021/04/24 00:34:38;;;;;;;3.30;1.67;;;;;;;3.88;66.49;100089.03;1991222;81;20314;-79
2021/04/24 00:37:40;;;;;;;2.88;1.44;;;;;;;3.85;66.52;100088.94;1995191;81;20346;-79
2021/04/24 00:40:42;;;;;;;5.05;2.51;;;;;;;3.81;66.36;100087.09;1994739;81;20322;-80
2021/04/24 00:43:44;;;;;;;2.75;1.49;;;;;;;3.77;66.38;100086.94;1999329;81;20340;-80
2021/04/24 00:46:45;;;;;;;1.91;1.70;;;;;;;3.71;66.57;100082.47;2001427;78;21783;-81
2021/04/24 00:49:48;;;;;;;2.25;1.46;;;;;;;3.67;66.78;100080.63;1997070;81;20350;-80
2021/04/24 00:52:49;;;;;;;3.05;1.63;;;;;;;3.58;66.89;100081.16;2000921;81;20342;-80
2021/04/24 00:55:51;;;;;;;6.07;1.88;;;;;;;3.53;67.05;100081.84;2001861;81;20348;-80
2021/04/24 00:58:52;;;;;;;2.50;1.89;;;;;;;3.50;67.11;100077.47;2000458;81;20344;-80
2021/04/24 01:01:54;;;;;;;2.91;2.10;;;;;;;3.44;67.26;100077.28;2002290;81;20326;-80
2021/04/24 01:04:56;;;;;;;2.22;1.50;;;;;;;3.39;67.37;100077.91;1999056;81;20416;-80
2021/04/24 01:07:57;;;;;;;3.99;2.10;;;;;;;3.30;67.81;100076.78;1996664;81;20357;-79
2021/04/24 01:10:59;;;;;;;3.49;1.44;;;;;;;3.20;68.33;100071.25;1995748;81;20334;-80
2021/04/24 01:14:01;;;;;;;4.39;1.86;;;;;;;3.18;68.17;100071.19;1993747;81;20388;-79
2021/04/24 01:17:05;;;;;;;7.57;1.51;;;;;;;3.16;68.16;100072.84;2000624;79;20327;-80
2021/04/24 01:20:08;;;;;;;4.26;1.36;;;;;;;3.15;68.15;100073.66;2003489;81;20319;-79
2021/04/24 01:23:10;;;;;;;4.95;3.19;;;;;;;3.13;68.15;100065.03;2002766;81;20354;-80
2021/04/24 01:26:12;;;;;;;5.55;1.36;;;;;;;3.07;68.02;100058.81;2001192;81;20343;-80
2021/04/24 01:29:13;;;;;;;3.17;1.65;;;;;;;3.04;68.15;100060.44;1999565;81;20344;-80
2021/04/24 01:32:15;;;;;;;1.77;1.52;;;;;;;3.01;68.50;100065.47;2001193;79;20407;-80
2021/04/24 01:35:26;;;;;;;3.39;1.56;;;;;;;2.96;68.57;100055.84;1997229;81;20357;-80
2021/04/24 01:38:28;;;;;;;2.65;1.26;;;;;;;2.93;68.68;100054.06;1992950;81;20327;-79
2021/04/24 01:41:30;;;;;;;1.69;1.10;;;;;;;2.92;68.72;100057.44;1996204;81;20319;-81
2021/04/24 01:44:31;;;;;;;4.55;1.40;;;;;;;2.89;69.18;100053.91;1995525;81;20386;-80
2021/04/24 01:47:34;;;;;;;3.54;1.55;;;;;;;2.87;69.28;100052.94;1995346;78;21043;-80
2021/04/24 01:50:42;;;;;;;4.32;1.59;;;;;;;2.80;68.85;100050.97;1994784;81;20330;-81
2021/04/24 01:53:44;;;;;;;2.70;1.41;;;;;;;2.71;68.96;100049.84;1996733;81;20338;-80
2021/04/24 01:57:01;;;;;;;3.50;1.42;;;;;;;2.65;69.45;100043.59;1993070;81;20367;-79
2021/04/24 02:00:07;;;;;;;4.65;2.24;;;;;;;2.58;69.87;100044.19;1993227;81;20363;-79
2021/04/24 02:03:13;;;;;;;2.54;1.79;;;;;;;2.52;70.17;100037.16;1994914;78;20361;-80
2021/04/24 02:06:14;;;;;;;2.70;1.60;;;;;;;2.52;70.06;100036.28;1995366;81;20319;-80
2021/04/24 02:09:18;;;;;;;3.55;1.60;;;;;;;2.53;70.10;100046.56;1997991;81;20338;-81
2021/04/24 02:12:23;;;;;;;6.97;1.77;;;;;;;2.51;69.90;100043.06;2007756;81;20440;-82
2021/04/24 02:15:24;;;;;;;4.04;1.45;;;;;;;2.47;69.77;100041.19;2006415;78;20350;-82
2021/04/24 02:18:26;;;;;;;2.46;1.30;;;;;;;2.43;69.62;100040.22;2004272;81;20340;-82
2021/04/24 02:21:28;;;;;;;3.14;1.52;;;;;;;2.40;69.72;100037.53;2003400;81;20319;-80
2021/04/24 02:27:59;;;;;;;3.79;1.35;;;;;;;2.30;70.06;100042.25;2000649;71;20376;-80
2021/04/24 02:31:01;;;;;;;3.05;1.58;;;;;;;2.26;70.27;100040.38;1997485;81;20363;-80
2021/04/24 02:34:04;;;;;;;3.14;1.67;;;;;;;2.19;70.40;100041.84;1994744;81;20385;-80
2021/04/24 02:37:07;;;;;;;3.06;1.60;;;;;;;2.10;70.89;100044.03;1995539;81;20622;-80
2021/04/24 02:40:17;;;;;;;3.53;1.88;;;;;;;2.03;71.08;100045.47;1991789;81;20328;-80
2021/04/24 02:43:19;;;;;;;3.39;1.94;;;;;;;1.99;71.17;100048.72;1992205;81;20910;-80
2021/04/24 02:46:21;;;;;;;2.94;1.65;;;;;;;1.93;71.39;100043.34;1985586;81;20339;-80
2021/04/24 02:49:22;;;;;;;4.04;1.81;;;;;;;1.92;71.11;100041.59;1990631;81;20319;-79
2021/04/24 02:52:24;;;;;;;3.21;1.66;;;;;;;1.92;71.22;100039.03;1992048;81;20350;-79
2021/04/24 02:55:26;;;;;;;4.19;1.83;;;;;;;1.90;71.51;100037.22;1993252;81;21020;-80
2021/04/24 02:58:27;;;;;;;3.47;1.75;;;;;;;1.87;71.44;100035.44;1991938;81;20833;-80
2021/04/24 03:01:29;;;;;;;3.83;2.47;;;;;;;1.86;71.02;100032.81;1993752;81;27254;-80
2021/04/24 03:04:32;;;;;;;3.41;1.74;;;;;;;1.82;71.17;100031.81;1997228;81;20318;-80
2021/04/24 03:07:34;;;;;;;3.31;1.71;;;;;;;1.76;71.45;100029.84;1996987;81;20596;-80
2021/04/24 03:10:38;;;;;;;3.86;1.88;;;;;;;1.74;71.44;100030.59;1997572;81;20352;-79
2021/04/24 03:13:39;;;;;;;4.51;2.19;;;;;;;1.72;71.57;100035.66;1996710;81;20352;-80
2021/04/24 03:16:41;;;;;;;5.16;1.94;;;;;;;1.67;71.60;100039.72;2001314;81;20389;-79
2021/04/24 03:19:42;;;;;;;5.51;2.28;;;;;;;1.69;71.79;100034.69;1999895;81;20361;-79
2021/04/24 03:22:45;;;;;;;4.55;2.09;;;;;;;1.69;72.20;100034.69;1993844;81;20907;-79
2021/04/24 03:25:46;;;;;;;4.31;2.38;;;;;;;1.64;72.39;100029.38;1995648;81;20341;-79
2021/04/24 03:28:49;;;;;;;2.90;1.84;;;;;;;1.57;72.63;100034.16;1995156;81;20380;-80
2021/04/24 03:31:51;;;;;;;2.84;1.92;;;;;;;1.55;72.55;100030.66;1992296;79;35211;-79
2021/04/24 03:34:53;;;;;;;5.56;1.90;;;;;;;1.53;72.73;100040.84;1995823;81;20344;-80
2021/04/24 03:37:54;;;;;;;2.31;1.59;;;;;;;1.49;72.80;100044.09;1995116;81;20330;-80
2021/04/24 03:40:56;;;;;;;4.07;2.19;;;;;;;1.48;72.81;100042.34;2000796;81;20319;-80
2021/04/24 03:43:58;;;;;;;2.50;1.98;;;;;;;1.49;72.62;100044.97;2004935;81;20343;-79
2021/04/24 03:47:00;;;;;;;4.44;2.10;;;;;;;1.49;72.51;100044.09;1997800;79;20799;-80
2021/04/24 03:50:02;;;;;;;2.67;1.88;;;;;;;1.51;72.41;100047.59;1996778;81;20426;-80
2021/04/24 03:53:05;;;;;;;3.53;1.98;;;;;;;1.49;72.54;100049.22;1996753;81;20328;-81
2021/04/24 03:56:07;;;;;;;3.24;2.05;;;;;;;1.45;72.61;100048.22;1995619;81;20312;-80
2021/04/24 03:59:09;;;;;;;4.05;1.88;;;;;;;1.39;72.75;100047.06;1993954;81;20336;-78
2021/04/24 04:02:10;;;;;;;4.85;1.98;;;;;;;1.35;72.83;100050.28;1990229;79;24577;-79
2021/04/24 04:05:13;;;;;;;2.33;1.77;;;;;;;1.31;72.99;100049.31;1990219;81;20349;-80
2021/04/24 04:08:15;;;;;;;5.60;1.89;;;;;;;1.27;72.70;100054.22;1990940;81;20335;-80
2021/04/24 04:11:17;;;;;;;4.45;1.63;;;;;;;1.25;72.77;100056.69;1986819;81;21057;-79
2021/04/24 04:14:18;;;;;;;7.29;2.24;;;;;;;1.21;73.02;100063.34;1988422;81;20714;-79
2021/04/24 04:17:21;;;;;;;3.99;1.70;;;;;;;1.19;73.03;100066.66;1993838;80;22222;-80
2021/04/24 04:20:23;;;;;;;2.45;1.65;;;;;;;1.20;73.01;100068.41;1998443;81;20343;-79
2021/04/24 04:23:25;;;;;;;4.46;1.79;;;;;;;1.18;73.17;100060.69;1998590;81;20331;-79
2021/04/24 04:26:27;;;;;;;5.53;1.96;;;;;;;1.17;73.27;100063.16;1994746;81;20350;-78
2021/04/24 04:29:28;;;;;;;4.41;1.84;;;;;;;1.16;73.09;100071.66;1996469;81;20327;-80
2021/04/24 04:32:30;;;;;;;4.26;1.70;;;;;;;1.13;73.20;100074.94;1994598;79;21005;-80
2021/04/24 04:35:33;;;;;;;2.83;1.92;;;;;;;1.10;73.03;100068.84;1990147;81;20365;-78
2021/04/24 04:38:34;;;;;;;2.81;1.89;;;;;;;1.11;72.80;100068.03;1986041;81;20394;-78
2021/04/24 04:41:36;;;;;;;3.24;1.58;;;;;;;1.11;73.23;100066.34;1986473;81;20397;-78
2021/04/24 04:44:37;;;;;;;3.92;1.94;;;;;;;1.13;73.44;100074.06;1986175;81;20719;-78
2021/04/24 04:47:39;;;;;;;4.35;2.14;;;;;;;1.15;73.44;100077.56;1989191;79;22567;-79
2021/04/24 04:50:41;;;;;;;2.35;1.98;;;;;;;1.16;73.70;100075.09;1987981;81;20854;-79
2021/04/24 04:53:43;;;;;;;3.58;1.74;;;;;;;1.23;73.84;100081.31;1989190;81;20316;-80
2021/04/24 04:56:46;;;;;;;5.03;1.66;;;;;;;1.27;73.81;100075.56;1989589;81;20453;-80
2021/04/24 04:59:48;;;;;;;2.51;1.71;;;;;;;1.33;73.78;100083.50;1987013;81;20316;-78
2021/04/24 05:02:49;;;;;;;4.01;1.77;;;;;;;1.36;73.67;100078.50;1992733;79;26141;-79
2021/04/24 05:05:51;;;;;;;8.55;2.00;;;;;;;1.39;73.62;100081.19;1992844;81;20433;-77
2021/04/24 05:08:53;;;;;;;5.24;1.84;;;;;;;1.46;73.68;100085.78;1991734;81;20318;-78
2021/04/24 05:11:55;;;;;;;4.55;2.05;;;;;;;1.54;73.52;100085.22;1992459;81;20360;-78
2021/04/24 05:14:56;;;;;;;2.76;2.11;;;;;;;1.58;73.71;100087.09;1992177;81;20812;-79
2021/04/24 05:17:58;;;;;;;4.94;2.40;;;;;;;1.64;73.73;100084.81;1988377;79;22594;-80
2021/04/24 05:21:00;;;;;;;3.89;1.80;;;;;;;1.72;73.72;100083.44;1989722;81;20905;-79
2021/04/24 05:24:02;;;;;;;4.16;2.19;;;;;;;1.81;73.80;100078.72;1992867;81;20339;-79
2021/04/24 05:27:05;;;;;;;5.05;2.10;;;;;;;1.90;73.79;100078.19;1990999;81;20344;-80
2021/04/24 05:30:07;;;;;;;3.25;2.29;;;;;;;2.03;73.86;100083.88;1988583;81;20360;-79
2021/04/24 05:33:08;;;;;;;4.11;2.34;;;;;;;2.16;73.66;100079.28;1992349;80;20657;-80
2021/04/24 05:36:13;;;;;;;4.59;2.34;;;;;;;2.28;73.33;100082.31;1991275;81;20347;-80
2021/04/24 05:39:14;;;;;;;4.84;2.34;;;;;;;2.43;73.20;100085.47;1994975;81;20315;-81
2021/04/24 05:42:16;;;;;;;3.75;2.22;;;;;;;2.78;73.05;100075.69;1995974;81;20315;-82
2021/04/24 05:45:18;;;;;;;3.15;2.16;;;;;;;3.92;70.60;100069.47;1998676;78;26600;-82
2021/04/24 05:48:20;;;;;;;3.19;1.91;;;;;;;4.57;67.79;100070.69;2003542;81;20449;-81
2021/04/24 05:51:22;;;;;;;4.71;2.03;;;;;;;4.93;66.46;100081.19;2006345;81;20344;-81
2021/04/24 05:54:24;;;;;;;2.65;2.09;;;;;;;5.21;65.93;100076.84;2004411;81;20359;-81
2021/04/24 05:57:26;;;;;;;4.34;2.53;;;;;;;5.44;65.19;100075.78;2003806;81;20319;-83
2021/04/24 06:00:28;;;;;;;3.35;2.38;;;;;;;5.73;64.20;100079.97;1997774;81;20875;-77
2021/04/24 06:03:29;;;;;;;3.85;2.14;;;;;;;6.03;62.97;100081.63;1991922;81;20747;-78
2021/04/24 06:06:31;;;;;;;5.95;2.44;;;;;;;6.42;62.05;100080.84;1991473;81;20577;-78
2021/04/24 06:09:34;;;;;;;7.40;2.42;;;;;;;6.86;61.02;100077.56;1991903;81;20454;-79
2021/04/24 06:12:36;;;;;;;6.89;2.55;;;;;;;7.29;60.08;100073.25;1992864;81;20831;-78
2021/04/24 06:15:38;;;;;;;9.18;2.88;;;;;;;7.68;59.18;100074.84;1991419;79;25441;-80
2021/04/24 06:18:40;;;;;;;7.70;3.61;;;;;;;8.06;58.30;100080.69;1989301;81;20180;-79
2021/04/24 06:21:42;;;;;;;7.34;3.65;;;;;;;8.48;57.13;100073.66;1987275;81;20203;-79
2021/04/24 06:24:43;;;;;;;5.30;3.38;;;;;;;9.14;55.16;100076.25;1989283;81;20213;-80
2021/04/24 06:27:46;;;;;;;5.15;3.80;;;;;;;9.75;52.76;100076.97;1991066;81;20229;-80
2021/04/24 06:30:47;;;;;;;5.46;3.01;;;;;;;10.23;50.93;100069.66;1991232;79;20248;-79
2021/04/24 06:33:49;;;;;;;4.75;3.40;;;;;;;10.67;50.16;100063.88;1994462;81;20479;-81
2021/04/24 06:36:52;;;;;;;8.04;3.99;;;;;;;11.11;49.14;100064.09;1994646;81;20192;-77
2021/04/24 06:39:53;;;;;;;8.32;3.60;;;;;;;11.37;47.94;100058.13;1992600;81;20200;-77
2021/04/24 06:42:55;;;;;;;10.68;3.95;;;;;;;11.61;46.83;100062.53;1994292;81;20363;-75
2021/04/24 06:45:57;;;;;;;8.68;3.59;;;;;;;11.79;46.71;100070.41;1989680;79;20685;-77
2021/04/24 06:48:58;;;;;;;7.31;3.47;;;;;;;12.01;45.50;100063.47;1986079;81;20191;-78
2021/04/24 06:52:00;;;;;;;11.73;3.58;;;;;;;12.28;44.97;100066.09;1986919;81;20707;-75
2021/04/24 06:55:03;;;;;;;7.39;3.51;;;;;;;12.59;45.02;100061.72;1989009;81;20192;-79
2021/04/24 06:58:05;;;;;;;11.27;4.60;;;;;;;12.79;43.40;100066.03;1987877;81;20612;-79
2021/04/24 07:01:06;;;;;;;8.50;3.84;;;;;;;12.91;43.58;100058.16;1988953;78;41074;-79
2021/04/24 07:04:08;;;;;;;10.69;3.81;;;;;;;13.21;42.75;100059.81;1994096;81;20223;-81
2021/04/24 07:07:10;;;;;;;9.02;4.20;;;;;;;13.55;42.34;100057.91;1992590;81;20207;-76
2021/04/24 07:10:13;;;;;;;11.60;5.11;;;;;;;13.91;41.84;100051.56;1992313;81;20163;-77
2021/04/24 07:13:15;;;;;;;12.36;5.09;;;;;;;14.13;40.92;100053.13;1993773;81;20266;-78
2021/04/24 07:16:16;;;;;;;16.77;5.90;;;;;;;14.18;40.42;100048.75;1992562;79;21420;-80
2021/04/24 07:19:18;;;;;;;12.13;5.31;;;;;;;14.37;40.26;100049.47;1996429;81;20196;-79
2021/04/24 07:22:20;;;;;;;16.30;4.90;;;;;;;14.58;39.80;100055.41;1988471;81;20277;-80
2021/04/24 07:25:21;;;;;;;11.54;4.01;;;;;;;14.75;39.89;100041.28;1988028;81;20901;-78
2021/04/24 07:28:23;;;;;;;12.26;3.99;;;;;;;14.82;39.38;100037.69;1994314;81;20207;-81
2021/04/24 07:31:25;;;;;;;13.74;4.30;;;;;;;15.09;39.31;100040.88;1995501;79;20217;-81
2021/04/24 07:34:26;;;;;;;9.15;5.24;;;;;;;15.24;38.51;100038.03;1996456;81;20215;-82
2021/04/24 07:37:28;;;;;;;10.80;4.13;;;;;;;15.45;37.74;100036.06;1996016;81;20191;-80
2021/04/24 07:40:30;;;;;;;10.13;3.79;;;;;;;15.55;37.92;100032.41;1998197;81;20227;-80
2021/04/24 07:43:32;;;;;;;8.60;3.95;;;;;;;15.77;37.72;100032.97;1994473;81;20667;-79
2021/04/24 07:46:33;;;;;;;8.02;3.33;;;;;;;15.97;37.08;100029.16;1989137;79;20685;-80
2021/04/24 07:49:36;;;;;;;7.30;3.08;;;;;;;16.12;37.00;100033.28;1992052;81;20327;-80
2021/04/24 07:52:38;;;;;;;8.18;2.94;;;;;;;16.13;36.02;100042.00;1990225;81;20194;-80
2021/04/24 07:55:40;;;;;;;15.44;3.33;;;;;;;15.99;36.61;100037.00;1991405;81;20223;-79
2021/04/24 07:58:41;;;;;;;5.16;2.41;;;;;;;16.27;36.38;100034.78;1989543;81;20171;-76
2021/04/24 08:01:43;;;;;;;5.30;2.89;;;;;;;16.56;35.00;100026.41;1989639;81;23907;-76
2021/04/24 08:04:45;;;;;;;9.32;3.13;;;;;;;16.92;35.15;100024.88;1991642;81;20250;-76
2021/04/24 08:07:47;;;;;;;7.38;3.49;;;;;;;17.10;34.89;100024.50;1991785;81;20182;-76
2021/04/24 08:10:49;;;;;;;7.26;3.19;;;;;;;17.24;34.62;100016.34;1991633;81;20269;-75
2021/04/24 08:13:50;;;;;;;7.57;2.51;;;;;;;17.46;33.93;100016.72;1991938;81;20216;-76
2021/04/24 08:16:53;;;;;;;4.15;2.31;;;;;;;17.65;33.10;100020.66;1990847;79;20179;-77
2021/04/24 08:19:55;;;;;;;6.93;2.84;;;;;;;17.91;33.30;100011.31;1992140;81;20272;-78
2021/04/24 08:22:56;;;;;;;3.59;1.92;;;;;;;17.93;32.35;100015.63;1991642;81;20630;-78
2021/04/24 08:25:58;;;;;;;4.60;2.01;;;;;;;17.85;32.50;100014.09;1992091;81;20212;-78
2021/04/24 08:29:00;;;;;;;3.65;1.96;;;;;;;18.03;31.89;100018.91;1992905;81;20231;-77
2021/04/24 08:32:04;;;;;;;5.28;2.34;;;;;;;18.22;31.60;100021.94;1987435;79;20201;-77
2021/04/24 08:35:06;;;;;;;6.13;1.77;;;;;;;18.33;30.83;100023.41;1987484;81;20393;-77
2021/04/24 08:38:09;;;;;;;4.03;1.92;;;;;;;18.66;30.86;100023.41;1987141;81;20243;-76
2021/04/24 08:41:10;;;;;;;6.80;2.63;;;;;;;18.76;30.84;100021.41;1987900;81;20513;-75
2021/04/24 08:44:17;;;;;;;6.43;2.61;;;;;;;18.88;30.39;100026.34;1987139;81;20179;-77
2021/04/24 08:47:21;;;;;;;6.88;3.03;;;;;;;18.73;30.93;100025.00;1990179;81;59671;-76
2021/04/24 08:50:27;;;;;;;10.10;2.75;;;;;;;19.02;30.45;100019.75;1991949;81;20189;-75
2021/04/24 08:53:28;;;;;;;5.91;2.59;;;;;;;19.00;30.93;100020.72;1991051;81;20197;-77
2021/04/24 08:56:30;;;;;;;5.66;2.50;;;;;;;19.14;30.14;100013.28;1992102;81;20163;-76
2021/04/24 08:59:32;;;;;;;4.54;2.19;;;;;;;19.18;28.82;100011.41;1991500;81;20188;-77
2021/04/24 09:02:34;;;;;;;4.65;1.90;;;;;;;19.28;30.09;100010.25;1987083;79;20195;-77
2021/04/24 09:05:37;;;;;;;5.35;2.66;;;;;;;19.58;29.31;100003.22;1987183;81;20578;-76
2021/04/24 09:08:51;;;;;;;5.15;2.60;;;;;;;19.76;29.21;100004.41;1987208;81;20188;-76
2021/04/24 09:11:56;;;;;;;4.40;2.03;;;;;;;19.68;28.74;100004.63;1986769;81;20328;-76
2021/04/24 09:15:06;;;;;;;4.51;2.40;;;;;;;19.77;29.24;100000.84;1987468;81;20434;-75
2021/04/24 09:18:09;;;;;;;7.85;2.49;;;;;;;19.78;29.10;100000.81;1986862;79;22746;-77
2021/04/24 09:21:13;;;;;;;6.10;2.31;;;;;;;19.92;28.99;100003.81;1986939;81;20199;-73
2021/04/24 09:24:34;;;;;;;7.18;2.54;;;;;;;20.07;28.22;100001.59;1986318;81;20201;-73
2021/04/24 09:27:46;;;;;;;8.41;2.79;;;;;;;20.14;28.01;100000.50;1986815;81;20334;-76
2021/04/24 09:30:48;;;;;;;7.88;2.79;;;;;;;20.26;28.28;99996.56;1990315;79;25620;-73
2021/04/24 09:33:54;;;;;;;4.63;2.54;;;;;;;20.43;27.69;99994.25;1992008;81;20210;-74
2021/04/24 09:36:58;;;;;;;6.34;3.49;;;;;;;20.50;27.14;99988.72;1991284;81;20655;-74
2021/04/24 09:39:59;;;;;;;7.60;2.66;;;;;;;20.32;26.37;99986.69;1992479;81;20706;-75
2021/04/24 09:43:06;;;;;;;9.70;3.13;;;;;;;20.44;26.66;99985.41;1991554;81;20171;-76
2021/04/24 09:46:08;;;;;;;3.39;2.21;;;;;;;20.51;26.90;99979.88;1989253;79;22337;-75
2021/04/24 09:49:22;;;;;;;5.46;2.41;;;;;;;20.34;27.42;99978.72;1986864;81;20270;-75
2021/04/24 09:52:23;;;;;;;7.80;2.78;;;;;;;20.56;27.63;99971.78;1987364;81;20205;-74
2021/04/24 09:55:36;;;;;;;3.79;2.49;;;;;;;20.83;27.81;99964.66;1987243;81;20213;-73
2021/04/24 09:58:41;;;;;;;8.29;2.72;;;;;;;20.92;28.10;99959.03;1988562;81;20184;-76
2021/04/24 10:01:43;;;;;;;5.60;2.41;;;;;;;20.77;27.52;99944.59;1989760;79;22701;-75
2021/04/24 10:05:24;;;;;;;8.18;2.75;;;;;;;20.96;28.84;99951.84;1992264;81;20803;-75
2021/04/24 10:08:25;;;;;;;4.82;2.38;;;;;;;21.03;26.77;99945.44;1993387;81;20209;-77
2021/04/24 10:11:28;;;;;;;5.25;2.66;;;;;;;21.30;26.60;99941.72;1994984;81;20160;-79
2021/04/24 10:14:44;;;;;;;5.40;2.64;;;;;;;21.42;27.36;99932.47;1989919;81;20562;-73
2021/04/24 10:17:47;;;;;;;4.28;2.20;;;;;;;21.56;27.95;99935.41;1989279;79;27491;-80
2021/04/24 10:20:52;;;;;;;5.21;2.25;;;;;;;21.69;26.83;99931.31;1989600;81;20206;-82
2021/04/24 10:23:54;;;;;;;6.10;2.64;;;;;;;21.64;26.11;99920.09;1988932;81;21288;-78
2021/04/24 10:26:57;;;;;;;6.06;2.78;;;;;;;21.92;26.50;99921.59;1988418;81;20188;-79
2021/04/24 10:30:00;;;;;;;6.94;3.47;;;;;;;22.12;25.81;99918.13;1989123;81;20184;-80
2021/04/24 10:33:03;;;;;;;6.88;3.28;;;;;;;22.25;25.44;99914.84;1988023;79;21134;-80
2021/04/24 10:36:05;;;;;;;5.07;3.25;;;;;;;22.24;25.02;99917.56;1990699;81;20802;-80
2021/04/24 10:39:21;;;;;;;6.05;3.51;;;;;;;22.07;24.88;99905.06;1989831;81;20653;-79
2021/04/24 10:42:25;;;;;;;4.38;2.81;;;;;;;22.13;25.50;99909.25;1988598;81;20658;-80
2021/04/24 10:45:33;;;;;;;7.34;2.76;;;;;;;22.28;25.97;99895.38;1988622;79;22266;-80
2021/04/24 10:48:35;;;;;;;6.34;3.20;;;;;;;22.19;25.57;99906.34;1991108;81;20172;-80
2021/04/24 10:52:01;;;;;;;4.45;2.85;;;;;;;21.66;24.64;99899.75;1990398;81;20179;-79
2021/04/24 10:55:12;;;;;;;5.04;2.74;;;;;;;21.94;24.19;99896.81;1989091;81;21005;-78
2021/04/24 10:58:19;;;;;;;5.69;2.99;;;;;;;21.82;25.04;99891.16;1989579;81;20229;-78
2021/04/24 11:01:21;;;;;;;6.64;3.00;;;;;;;22.04;25.00;99891.97;1990652;78;29128;-79
2021/04/24 11:05:14;;;;;;;6.14;2.63;;;;;;;21.98;25.61;99881.66;1994984;81;20183;-79
2021/04/24 11:08:21;;;;;;;4.94;2.83;;;;;;;22.29;26.49;99886.50;1984715;81;20739;-79
2021/04/24 11:11:23;;;;;;;4.78;2.91;;;;;;;22.30;24.24;99885.56;1995767;81;20196;-78
2021/04/24 11:14:25;;;;;;;6.69;2.83;;;;;;;22.27;25.91;99873.34;1995717;81;20979;-78
2021/04/24 11:17:30;;;;;;;6.54;2.63;;;;;;;22.36;24.30;99869.41;1989103;79;21742;-78
2021/04/24 11:20:51;;;;;;;5.89;2.86;;;;;;;22.41;25.06;99861.25;1989293;81;20294;-78
2021/04/24 11:24:13;;;;;;;5.07;3.05;;;;;;;22.79;25.13;99859.50;1988494;81;20179;-78
2021/04/24 11:27:14;;;;;;;4.50;2.28;;;;;;;23.10;23.34;99848.31;1989737;81;20197;-78
2021/04/24 11:30:50;;;;;;;2.92;2.15;;;;;;;23.10;24.72;99857.13;1987342;78;46566;-78
2021/04/24 11:33:52;;;;;;;7.03;2.92;;;;;;;23.33;23.15;99856.00;1994773;81;20208;-77
2021/04/24 11:37:29;;;;;;;7.16;3.39;;;;;;;23.16;22.56;99851.56;1996695;81;20280;-79
2021/04/24 11:40:31;;;;;;;9.63;3.10;;;;;;;23.24;23.43;99850.31;1995598;81;20216;-80
2021/04/24 11:43:33;;;;;;;6.44;3.44;;;;;;;23.46;21.68;99848.31;1994174;81;20205;-78
2021/04/24 11:46:37;;;;;;;4.19;2.67;;;;;;;23.16;21.54;99848.03;1989432;79;22379;-76
2021/04/24 11:49:50;;;;;;;5.68;2.55;;;;;;;23.29;21.95;99843.84;1987172;81;20201;-78
2021/04/24 11:52:57;;;;;;;3.10;2.29;;;;;;;23.30;23.28;99840.25;1988590;81;20241;-78
2021/04/24 11:55:58;;;;;;;3.04;2.55;;;;;;;23.76;22.86;99841.50;1988981;81;20649;-78
2021/04/24 11:59:00;;;;;;;5.16;2.86;;;;;;;23.91;21.79;99836.34;1989399;81;20431;-78
2021/04/24 12:02:24;;;;;;;5.36;3.49;;;;;;;24.10;22.27;99831.78;1991096;79;20190;-78
2021/04/24 12:05:27;;;;;;;6.47;2.40;;;;;;;24.18;22.00;99828.72;1993461;81;20187;-79
2021/04/24 12:08:29;;;;;;;7.66;2.76;;;;;;;24.00;21.98;99828.75;1993398;81;20183;-79
2021/04/24 12:11:30;;;;;;;7.47;3.59;;;;;;;23.77;20.83;99816.69;1992040;81;20206;-78
2021/04/24 12:14:32;;;;;;;5.63;2.22;;;;;;;23.78;20.58;99817.53;1992296;81;20207;-81
2021/04/24 12:18:06;;;;;;;5.54;2.83;;;;;;;23.86;21.68;99815.34;1996560;79;24565;-84
2021/04/24 12:21:08;;;;;;;4.90;2.90;;;;;;;23.93;22.00;99821.19;1995618;81;20226;-82
2021/04/24 12:24:10;;;;;;;4.25;2.84;;;;;;;24.27;22.07;99807.00;1990874;81;20595;-81
2021/04/24 12:27:41;;;;;;;4.66;2.78;;;;;;;24.30;21.26;99810.38;1988696;81;20217;-79
2021/04/24 12:30:45;;;;;;;5.93;3.08;;;;;;;24.39;21.50;99814.31;1988098;78;20619;-79
2021/04/24 12:33:47;;;;;;;5.53;3.64;;;;;;;24.19;20.18;99802.09;1986856;81;20312;-78
2021/04/24 12:36:50;;;;;;;7.69;3.40;;;;;;;24.25;21.37;99804.44;1987088;81;20205;-79
2021/04/24 12:40:09;;;;;;;5.49;2.54;;;;;;;24.43;21.22;99788.47;1989030;81;20207;-79
2021/04/24 12:43:30;;;;;;;4.60;2.55;;;;;;;24.46;20.63;99791.81;1986367;81;20207;-79
2021/04/24 12:46:35;;;;;;;4.88;2.24;;;;;;;24.50;20.77;99795.16;1989438;79;22739;-79
2021/04/24 12:49:40;;;;;;;5.05;2.65;;;;;;;24.14;21.13;99792.66;1993020;81;20238;-79
2021/04/24 12:52:52;;;;;;;5.88;2.97;;;;;;;24.05;20.46;99794.00;1994958;81;20288;-79
2021/04/24 12:56:02;;;;;;;4.59;2.85;;;;;;;23.57;20.19;99785.06;1998347;81;20187;-81
2021/04/24 12:59:05;;;;;;;9.30;3.34;;;;;;;23.63;20.96;99787.38;1999462;81;20197;-81
2021/04/24 13:02:08;;;;;;;5.54;2.45;;;;;;;23.65;20.06;99779.34;1994449;79;22420;-80
2021/04/24 13:05:11;;;;;;;4.20;2.30;;;;;;;23.48;20.97;99769.56;1989159;81;20203;-80
2021/04/24 13:08:13;;;;;;;3.92;2.30;;;;;;;23.66;20.96;99766.00;1991585;81;20187;-80
2021/04/24 13:11:15;;;;;;;4.43;2.53;;;;;;;23.93;21.03;99769.00;1991558;81;20200;-80
2021/04/24 13:14:20;;;;;;;4.90;2.22;;;;;;;24.23;20.99;99762.97;1989904;81;20217;-79
2021/04/24 13:17:27;;;;;;;3.63;2.36;;;;;;;24.22;20.93;99771.88;1988366;79;23146;-79
2021/04/24 13:20:33;;;;;;;3.74;2.21;;;;;;;24.18;20.30;99765.88;1988438;81;20195;-80
2021/04/24 13:23:40;;;;;;;3.63;2.14;;;;;;;24.07;19.40;99750.56;1988955;81;20188;-78
2021/04/24 13:26:50;;;;;;;2.40;2.19;;;;;;;24.09;19.96;99758.44;1988510;81;20231;-79
2021/04/24 13:29:53;;;;;;;4.31;2.67;;;;;;;24.16;18.50;99754.50;1989059;81;20212;-79
2021/04/24 13:32:59;;;;;;;8.30;2.45;;;;;;;24.28;19.54;99753.84;1993423;79;20999;-79
2021/04/24 13:36:02;;;;;;;4.66;2.04;;;;;;;24.47;20.00;99744.88;1995449;81;20187;-78
2021/04/24 13:39:03;;;;;;;4.63;2.60;;;;;;;24.74;19.79;99750.44;1995740;81;20187;-80
2021/04/24 13:42:10;;;;;;;5.81;2.85;;;;;;;24.80;18.76;99740.31;1993150;81;20840;-77
2021/04/24 13:45:18;;;;;;;3.56;1.63;;;;;;;24.30;18.68;99738.72;1992190;81;20290;-77
2021/04/24 13:48:27;;;;;;;4.99;2.46;;;;;;;24.33;19.66;99733.22;1995992;81;20269;-81
2021/04/24 13:51:29;;;;;;;4.07;2.24;;;;;;;24.08;19.33;99738.16;2003549;81;20216;-80
2021/04/24 13:54:32;;;;;;;6.29;2.47;;;;;;;23.94;19.05;99735.38;1999697;81;21012;-81
2021/04/24 13:57:35;;;;;;;7.10;2.00;;;;;;;24.04;20.10;99731.28;2003371;71;20177;-83
2021/04/24 14:00:39;;;;;;;4.35;2.34;;;;;;;23.75;19.10;99725.75;1993044;79;21694;-82
2021/04/24 14:03:41;;;;;;;5.32;2.30;;;;;;;23.94;19.96;99715.00;2029432;71;20184;-81
2021/04/24 14:06:43;;;;;;;9.36;2.16;;;;;;;23.94;20.01;99712.34;1989972;81;21047;-78
2021/04/24 14:09:45;;;;;;;4.40;2.30;;;;;;;23.82;19.43;99707.69;1992283;81;20179;-78
2021/04/24 14:12:47;;;;;;;5.72;2.20;;;;;;;24.02;20.11;99704.81;1990048;81;20172;-78
2021/04/24 14:15:49;;;;;;;8.75;2.22;;;;;;;24.24;19.66;99703.66;1997117;79;20171;-80
2021/04/24 14:18:51;;;;;;;4.44;2.00;;;;;;;24.44;19.78;99697.28;1999970;81;20547;-78
2021/04/24 14:21:53;;;;;;;4.00;1.75;;;;;;;24.41;19.27;99685.84;2001324;81;20175;-81
2021/04/24 14:24:54;;;;;;;3.83;2.04;;;;;;;24.34;19.66;99691.63;2003702;81;20204;-81
2021/04/24 14:27:56;;;;;;;4.34;1.91;;;;;;;24.32;19.55;99686.41;2004493;81;20201;-79